Time;durP1;ratioP1;P1;durP2;ratioP2;P2;SDS_P1;SDS_P2;PMS_P1;PMS_P2;Temp;Humidity;BMP_temperature;BMP_pressure;BME280_temperature;BME280_humidity;BME280_pressure;Samples;Min_cycle;Max_cycle;Signal;HPM_P1;HPM_P2
2023/01/03 00:01:30;;;;;;;3.42;1.52;;;;;;;;;;5012415;28;20061;-73
2023/01/03 00:03:57;;;;;;;2.85;1.70;;;;;;;;;;5010416;28;20029;-74
2023/01/03 00:06:30;;;;;;;1.55;1.27;;;;;;;;;;4980912;28;20092;-74
2023/01/03 00:08:58;;;;;;;2.03;1.35;;;;;;;;;;5011902;28;20054;-74
2023/01/03 00:14:12;;;;;;;1.27;1.10;;;;;;;;;;4994200;28;20507;-75
2023/01/03 00:16:38;;;;;;;2.65;1.25;;;;;;;;;;4994477;28;20024;-75
2023/01/03 00:19:11;;;;;;;1.20;1.10;;;;;;;;;;5011830;28;20022;-73
2023/01/03 00:21:37;;;;;;;1.33;1.23;;;;;;;;;;5012084;28;20364;-75
2023/01/03 00:24:03;;;;;;;2.38;1.15;;;;;;;;;;5011893;28;20025;-73
2023/01/03 00:26:29;;;;;;;4.32;1.50;;;;;;;;;;5012405;28;20026;-73
2023/01/03 00:28:55;;;;;;;2.25;1.40;;;;;;;;;;5011444;28;20033;-74
2023/01/03 00:31:21;;;;;;;2.45;1.00;;;;;;;;;;5011850;28;20026;-72
2023/01/03 00:33:47;;;;;;;3.15;1.60;;;;;;;;;;5011830;28;20021;-73
2023/01/03 00:36:13;;;;;;;1.05;0.80;;;;;;;;;;5011670;28;20046;-74
2023/01/03 00:38:39;;;;;;;1.58;1.13;;;;;;;;;;5011483;28;20021;-73
2023/01/03 00:41:07;;;;;;;2.30;1.85;;;;;;;;;;4994049;28;20353;-73
2023/01/03 00:43:33;;;;;;;2.47;1.50;;;;;;;;;;4994432;28;20036;-74
2023/01/03 00:45:59;;;;;;;2.20;1.40;;;;;;;;;;5011482;28;20084;-72
2023/01/03 00:48:25;;;;;;;3.05;2.10;;;;;;;;;;5010864;28;20022;-74
2023/01/03 00:50:51;;;;;;;1.40;1.30;;;;;;;;;;5011696;28;20473;-73
2023/01/03 00:53:17;;;;;;;1.33;1.10;;;;;;;;;;5011968;28;20033;-74
2023/01/03 00:55:43;;;;;;;2.00;1.70;;;;;;;;;;5011561;28;20022;-74
2023/01/03 00:58:09;;;;;;;2.00;1.42;;;;;;;;;;5011308;28;20010;-74
2023/01/03 01:00:35;;;;;;;2.83;1.38;;;;;;;;;;5011670;28;20025;-74
2023/01/03 01:03:01;;;;;;;2.28;1.60;;;;;;;;;;5011530;28;20026;-74
2023/01/03 01:05:31;;;;;;;1.48;1.38;;;;;;;;;;4976496;28;20027;-74
2023/01/03 01:07:57;;;;;;;2.30;1.63;;;;;;;;;;4990408;28;20025;-73
2023/01/03 01:10:23;;;;;;;1.92;1.13;;;;;;;;;;5011787;28;20044;-74
2023/01/03 01:12:50;;;;;;;1.42;1.10;;;;;;;;;;5005517;28;20176;-74
2023/01/03 01:15:16;;;;;;;3.28;1.05;;;;;;;;;;5004654;28;20112;-76
2023/01/03 01:17:42;;;;;;;2.50;1.70;;;;;;;;;;5010510;28;20028;-74
2023/01/03 01:20:08;;;;;;;3.22;1.33;;;;;;;;;;4994001;28;20014;-75
2023/01/03 01:22:34;;;;;;;1.55;1.40;;;;;;;;;;5011959;28;20146;-75
2023/01/03 01:25:00;;;;;;;1.73;1.42;;;;;;;;;;5012308;28;20033;-75
2023/01/03 01:27:26;;;;;;;2.05;1.45;;;;;;;;;;5011577;28;20037;-76
2023/01/03 01:29:52;;;;;;;0.90;0.90;;;;;;;;;;5012122;28;20510;-75
2023/01/03 01:32:18;;;;;;;3.80;1.90;;;;;;;;;;5011137;28;20037;-75
2023/01/03 01:34:44;;;;;;;1.63;1.30;;;;;;;;;;5010923;28;20027;-75
2023/01/03 01:37:10;;;;;;;2.00;1.35;;;;;;;;;;5010203;28;20030;-75
2023/01/03 01:39:36;;;;;;;1.63;0.95;;;;;;;;;;5010955;28;20503;-76
2023/01/03 01:44:54;;;;;;;3.50;1.90;;;;;;;;;;5011196;28;20036;-76
2023/01/03 01:47:39;;;;;;;1.45;1.10;;;;;;;;;;5010238;28;20100;-76
2023/01/03 01:50:15;;;;;;;1.30;1.20;;;;;;;;;;5010532;28;20034;-76
2023/01/03 01:52:43;;;;;;;1.58;1.10;;;;;;;;;;5011058;28;20025;-74
2023/01/03 01:55:11;;;;;;;2.63;1.70;;;;;;;;;;5010740;28;20527;-75
2023/01/03 01:57:38;;;;;;;2.63;1.80;;;;;;;;;;5010565;28;20428;-75
2023/01/03 02:00:05;;;;;;;2.70;2.00;;;;;;;;;;5013161;28;20483;-74
2023/01/03 02:02:31;;;;;;;2.83;1.30;;;;;;;;;;5015010;28;20018;-75
2023/01/03 02:04:58;;;;;;;2.25;1.40;;;;;;;;;;5004541;28;20022;-75
2023/01/03 02:07:24;;;;;;;2.10;1.40;;;;;;;;;;5008369;28;20037;-75
2023/01/03 02:09:52;;;;;;;2.28;1.60;;;;;;;;;;5014390;28;20407;-75
2023/01/03 02:15:19;;;;;;;1.95;1.20;;;;;;;;;;4994829;28;20096;-74
2023/01/03 02:18:07;;;;;;;2.38;1.67;;;;;;;;;;5010837;28;20034;-75
2023/01/03 02:20:33;;;;;;;2.97;2.03;;;;;;;;;;5014253;28;20092;-75
2023/01/03 02:23:02;;;;;;;5.72;1.27;;;;;;;;;;5013931;28;20110;-75
2023/01/03 02:25:44;;;;;;;1.60;1.42;;;;;;;;;;5037062;22;20050;-74
2023/01/03 02:28:29;;;;;;;3.10;1.60;;;;;;;;;;4980606;28;20034;-76
2023/01/03 02:31:23;;;;;;;3.85;1.45;;;;;;;;;;4996609;28;20026;-74
2023/01/03 02:33:52;;;;;;;1.88;1.13;;;;;;;;;;5014292;28;20045;-74
2023/01/03 02:36:37;;;;;;;2.20;1.27;;;;;;;;;;5019293;28;20103;-76
2023/01/03 02:39:19;;;;;;;1.95;1.00;;;;;;;;;;5024960;28;20072;-76
2023/01/03 02:41:45;;;;;;;;;;;;;;;;;;5018329;28;20107;-78
2023/01/03 02:44:27;;;;;;;1.70;1.10;;;;;;;;;;5029404;28;19945;-75
2023/01/03 02:46:56;;;;;;;2.83;1.42;;;;;;;;;;5023948;28;20056;-75
2023/01/03 02:49:27;;;;;;;2.60;1.42;;;;;;;;;;5001545;28;20032;-75
2023/01/03 02:51:54;;;;;;;1.38;1.20;;;;;;;;;;5024099;28;20140;-75
2023/01/03 02:54:25;;;;;;;4.15;1.08;;;;;;;;;;5026315;28;20034;-75
2023/01/03 02:56:54;;;;;;;1.88;1.58;;;;;;;;;;5013325;28;20029;-76
2023/01/03 02:59:22;;;;;;;2.70;1.77;;;;;;;;;;5025285;28;20338;-76
2023/01/03 03:01:49;;;;;;;1.40;0.95;;;;;;;;;;5015241;28;20029;-75
2023/01/03 03:04:16;;;;;;;1.42;0.95;;;;;;;;;;5026746;28;20021;-75
2023/01/03 03:06:52;;;;;;;2.42;1.77;;;;;;;;;;5019977;28;20017;-75
2023/01/03 03:09:18;;;;;;;1.85;0.85;;;;;;;;;;5017224;28;20050;-75
2023/01/03 03:14:32;;;;;;;1.52;0.98;;;;;;;;;;5019966;28;20040;-74
2023/01/03 03:17:01;;;;;;;1.25;0.95;;;;;;;;;;5022531;28;20083;-75
2023/01/03 03:25:19;;;;;;;1.90;0.95;;;;;;;;;;5021226;28;20076;-74
2023/01/03 03:30:32;;;;;;;2.60;1.35;;;;;;;;;;5020214;28;20033;-75
2023/01/03 03:33:05;;;;;;;2.80;1.13;;;;;;;;;;5004490;28;20499;-75
2023/01/03 03:35:33;;;;;;;1.23;1.13;;;;;;;;;;5028465;28;20029;-74
2023/01/03 03:38:00;;;;;;;2.15;1.08;;;;;;;;;;5015332;28;20022;-75
2023/01/03 03:46:12;;;;;;;2.10;1.45;;;;;;;;;;5000648;28;20029;-74
2023/01/03 03:51:27;;;;;;;2.35;1.17;;;;;;;;;;5026944;28;20037;-76
2023/01/03 03:53:54;;;;;;;3.57;1.60;;;;;;;;;;5016180;28;20030;-76
2023/01/03 03:56:23;;;;;;;1.02;1.02;;;;;;;;;;5026696;28;20022;-75
2023/01/03 03:58:52;;;;;;;4.05;1.15;;;;;;;;;;5021567;28;20038;-75
2023/01/03 04:01:20;;;;;;;2.13;1.15;;;;;;;;;;5019115;28;20033;-75
2023/01/03 04:03:47;;;;;;;2.45;1.00;;;;;;;;;;5029168;28;20025;-75
2023/01/03 04:06:15;;;;;;;1.83;1.20;;;;;;;;;;5016664;28;20017;-75
2023/01/03 04:08:41;;;;;;;1.25;1.15;;;;;;;;;;5005748;28;20030;-75
2023/01/03 04:11:07;;;;;;;1.42;1.10;;;;;;;;;;5024236;28;20099;-75
2023/01/03 04:13:34;;;;;;;1.75;1.08;;;;;;;;;;5016763;28;20022;-75
2023/01/03 04:16:00;;;;;;;4.13;1.10;;;;;;;;;;5030425;28;20021;-76
2023/01/03 04:18:26;;;;;;;2.53;1.48;;;;;;;;;;5018412;28;20021;-75
2023/01/03 04:20:52;;;;;;;2.95;0.95;;;;;;;;;;5022572;28;20026;-75
2023/01/03 04:23:18;;;;;;;1.40;1.25;;;;;;;;;;5025041;28;20399;-75
2023/01/03 04:25:44;;;;;;;1.83;1.25;;;;;;;;;;5015412;28;20495;-75
2023/01/03 04:28:10;;;;;;;1.77;0.90;;;;;;;;;;5026883;28;20026;-75
2023/01/03 04:30:36;;;;;;;1.23;1.13;;;;;;;;;;5019737;28;20022;-75
2023/01/03 04:33:04;;;;;;;1.55;1.30;;;;;;;;;;5020844;28;20032;-75
2023/01/03 04:35:30;;;;;;;1.48;1.20;;;;;;;;;;5008708;28;20030;-77
2023/01/03 04:37:57;;;;;;;2.80;1.13;;;;;;;;;;5014501;28;20100;-76
2023/01/03 04:40:23;;;;;;;3.47;1.20;;;;;;;;;;5026437;28;20014;-75
2023/01/03 04:45:34;;;;;;;0.88;0.85;;;;;;;;;;5016374;28;20438;-75
2023/01/03 04:48:00;;;;;;;2.33;1.23;;;;;;;;;;5027363;28;20151;-75
2023/01/03 04:50:26;;;;;;;1.73;1.27;;;;;;;;;;5017955;28;20035;-74
2023/01/03 04:52:52;;;;;;;2.92;1.48;;;;;;;;;;5021697;28;20119;-76
2023/01/03 04:55:19;;;;;;;2.03;1.02;;;;;;;;;;5024919;28;20034;-75
2023/01/03 04:57:45;;;;;;;1.10;1.00;;;;;;;;;;4996657;28;20479;-75
2023/01/03 05:00:11;;;;;;;4.50;1.13;;;;;;;;;;5027430;28;20395;-75
2023/01/03 05:02:37;;;;;;;3.75;1.00;;;;;;;;;;5019203;28;20028;-75
2023/01/03 05:05:03;;;;;;;1.35;1.00;;;;;;;;;;4999134;28;20030;-75
2023/01/03 05:07:29;;;;;;;3.83;1.40;;;;;;;;;;5020300;28;20025;-75
2023/01/03 05:09:56;;;;;;;1.45;1.05;;;;;;;;;;5014545;28;20491;-74
2023/01/03 05:12:22;;;;;;;0.75;0.75;;;;;;;;;;5025228;28;20052;-74
2023/01/03 05:14:48;;;;;;;1.45;1.00;;;;;;;;;;5002724;28;20407;-75
2023/01/03 05:17:14;;;;;;;1.73;0.93;;;;;;;;;;5017449;28;20033;-76
2023/01/03 05:27:56;;;;;;;1.52;1.20;;;;;;;;;;5010798;28;20531;-75
2023/01/03 05:30:22;;;;;;;4.63;1.25;;;;;;;;;;5016647;28;20368;-76
2023/01/03 05:32:48;;;;;;;3.25;1.25;;;;;;;;;;5030524;28;20045;-76
2023/01/03 05:35:14;;;;;;;2.75;1.17;;;;;;;;;;5026135;28;20140;-76
2023/01/03 05:37:40;;;;;;;1.60;1.30;;;;;;;;;;4995871;28;20026;-75
2023/01/03 05:40:06;;;;;;;2.20;0.70;;;;;;;;;;5027098;28;20025;-75
2023/01/03 05:42:32;;;;;;;2.30;1.58;;;;;;;;;;5000223;28;20029;-75
2023/01/03 05:44:58;;;;;;;5.18;3.17;;;;;;;;;;5020197;28;20030;-75
2023/01/03 05:47:24;;;;;;;5.35;3.25;;;;;;;;;;5023850;28;20033;-76
2023/01/03 05:49:50;;;;;;;2.85;1.80;;;;;;;;;;5013958;28;20487;-74
2023/01/03 05:52:16;;;;;;;4.93;2.65;;;;;;;;;;5025728;28;20022;-75
2023/01/03 05:54:43;;;;;;;3.95;2.53;;;;;;;;;;5019011;28;20025;-75
2023/01/03 05:57:09;;;;;;;5.07;2.50;;;;;;;;;;5000030;28;20029;-75
2023/01/03 05:59:35;;;;;;;2.67;1.90;;;;;;;;;;5026451;28;20021;-76
2023/01/03 06:02:01;;;;;;;3.10;1.35;;;;;;;;;;5014646;28;20030;-76
2023/01/03 06:04:27;;;;;;;2.35;1.15;;;;;;;;;;5003328;28;20046;-76
2023/01/03 06:06:53;;;;;;;1.50;1.15;;;;;;;;;;5010731;28;20036;-75
2023/01/03 06:09:19;;;;;;;1.75;1.05;;;;;;;;;;5016288;28;20026;-75
2023/01/03 06:11:45;;;;;;;1.98;1.05;;;;;;;;;;5009388;28;20033;-75
2023/01/03 06:14:11;;;;;;;2.05;1.20;;;;;;;;;;5014256;28;20097;-75
2023/01/03 06:19:21;;;;;;;2.30;1.30;;;;;;;;;;5023832;28;20032;-74
2023/01/03 06:21:47;;;;;;;2.83;1.40;;;;;;;;;;5014142;28;20026;-73
2023/01/03 06:24:13;;;;;;;2.92;1.60;;;;;;;;;;5025735;28;20100;-75
2023/01/03 06:26:39;;;;;;;2.25;1.30;;;;;;;;;;5018431;28;20087;-74
2023/01/03 06:29:05;;;;;;;2.58;1.67;;;;;;;;;;5019647;28;20040;-75
2023/01/03 06:31:32;;;;;;;4.28;1.80;;;;;;;;;;5009530;28;20022;-75
2023/01/03 06:33:58;;;;;;;4.72;2.30;;;;;;;;;;5002369;28;20485;-74
2023/01/03 06:36:26;;;;;;;4.93;1.70;;;;;;;;;;5006116;28;20033;-74
2023/01/03 06:38:53;;;;;;;2.72;1.50;;;;;;;;;;5019635;28;20022;-75
2023/01/03 06:41:19;;;;;;;2.40;2.13;;;;;;;;;;5016310;28;20026;-75
2023/01/03 06:43:45;;;;;;;3.38;1.98;;;;;;;;;;5024619;28;20034;-75
2023/01/03 06:54:31;;;;;;;2.85;1.75;;;;;;;;;;5021951;28;20117;-74
2023/01/03 06:56:57;;;;;;;1.60;1.17;;;;;;;;;;5013154;28;20173;-74
2023/01/03 06:59:23;;;;;;;3.38;1.83;;;;;;;;;;5027342;28;20490;-72
2023/01/03 07:01:50;;;;;;;4.03;2.17;;;;;;;;;;5016940;28;20068;-76
2023/01/03 07:04:16;;;;;;;4.25;2.10;;;;;;;;;;5027103;28;20080;-76
2023/01/03 07:06:42;;;;;;;4.20;2.40;;;;;;;;;;5013921;28;20467;-75
2023/01/03 07:09:09;;;;;;;5.13;2.30;;;;;;;;;;5002933;28;20360;-76
2023/01/03 07:11:35;;;;;;;4.40;2.38;;;;;;;;;;5013000;28;20025;-75
2023/01/03 07:14:02;;;;;;;6.35;2.90;;;;;;;;;;5019189;28;20037;-75
2023/01/03 07:16:30;;;;;;;5.05;2.78;;;;;;;;;;5025963;28;20504;-77
2023/01/03 07:18:57;;;;;;;4.25;3.05;;;;;;;;;;5022156;28;20168;-76
2023/01/03 07:21:24;;;;;;;3.97;2.40;;;;;;;;;;5019228;28;20451;-75
2023/01/03 07:23:51;;;;;;;4.53;2.72;;;;;;;;;;5029479;28;20029;-75
2023/01/03 07:26:17;;;;;;;5.50;2.97;;;;;;;;;;5017559;28;20033;-75
2023/01/03 07:28:43;;;;;;;5.75;3.30;;;;;;;;;;5023303;28;20102;-74
2023/01/03 07:31:09;;;;;;;4.22;2.75;;;;;;;;;;5025056;28;20025;-75
2023/01/03 07:33:37;;;;;;;4.10;3.13;;;;;;;;;;5017882;28;20025;-76
2023/01/03 07:36:05;;;;;;;5.10;3.05;;;;;;;;;;5028847;28;20092;-75
2023/01/03 07:38:31;;;;;;;6.03;3.75;;;;;;;;;;5018817;28;20093;-75
2023/01/03 07:40:58;;;;;;;5.05;3.03;;;;;;;;;;5021984;28;20058;-75
2023/01/03 07:43:36;;;;;;;5.60;3.03;;;;;;;;;;5027159;28;20048;-76
2023/01/03 07:46:08;;;;;;;3.70;3.28;;;;;;;;;;4996825;28;20099;-76
2023/01/03 07:48:35;;;;;;;4.20;3.40;;;;;;;;;;5022732;28;20025;-77
2023/01/03 07:51:01;;;;;;;6.07;3.75;;;;;;;;;;5022021;28;20030;-75
2023/01/03 07:53:27;;;;;;;6.78;3.28;;;;;;;;;;5016176;28;20048;-74
2023/01/03 07:55:53;;;;;;;6.68;3.28;;;;;;;;;;5026742;28;20506;-75
2023/01/03 07:58:19;;;;;;;4.78;3.42;;;;;;;;;;5014546;28;20029;-75
2023/01/03 08:00:45;;;;;;;5.10;3.17;;;;;;;;;;5022468;28;20072;-76
2023/01/03 08:03:13;;;;;;;4.10;3.42;;;;;;;;;;5007080;28;20017;-75
2023/01/03 08:05:39;;;;;;;4.13;3.20;;;;;;;;;;5016212;28;20026;-75
2023/01/03 08:08:05;;;;;;;3.17;2.63;;;;;;;;;;5027571;28;20022;-75
2023/01/03 08:13:18;;;;;;;3.67;3.10;;;;;;;;;;5018625;28;20504;-75
2023/01/03 08:15:45;;;;;;;4.05;3.13;;;;;;;;;;5028155;28;20405;-74
2023/01/03 08:18:11;;;;;;;5.32;3.53;;;;;;;;;;5015241;28;20092;-75
2023/01/03 08:20:38;;;;;;;5.20;3.00;;;;;;;;;;5018909;28;20017;-74
2023/01/03 08:23:04;;;;;;;6.18;3.28;;;;;;;;;;5005579;28;20044;-75
2023/01/03 08:28:11;;;;;;;4.37;3.13;;;;;;;;;;5009602;28;20046;-74
2023/01/03 08:30:41;;;;;;;4.55;2.85;;;;;;;;;;5012425;28;20048;-73
2023/01/03 08:33:10;;;;;;;3.07;2.70;;;;;;;;;;5011933;28;20018;-75
2023/01/03 08:35:37;;;;;;;3.33;2.30;;;;;;;;;;5012315;28;20041;-74
2023/01/03 08:38:06;;;;;;;3.78;2.25;;;;;;;;;;5010836;28;20025;-72
2023/01/03 08:40:34;;;;;;;5.65;2.47;;;;;;;;;;5011807;28;20060;-75
2023/01/03 08:43:02;;;;;;;4.55;2.40;;;;;;;;;;5012267;28;20037;-78
2023/01/03 08:45:28;;;;;;;4.40;2.88;;;;;;;;;;5011397;28;20033;-72
2023/01/03 08:47:57;;;;;;;5.30;2.70;;;;;;;;;;5009444;28;20468;-75
2023/01/03 08:50:23;;;;;;;2.60;2.38;;;;;;;;;;5008862;28;20058;-74
2023/01/03 08:52:50;;;;;;;3.15;2.65;;;;;;;;;;5011036;28;20021;-76
2023/01/03 08:55:16;;;;;;;4.80;3.00;;;;;;;;;;5010105;28;20032;-75
2023/01/03 08:57:42;;;;;;;4.80;2.95;;;;;;;;;;5009402;28;20024;-74
2023/01/03 09:00:08;;;;;;;5.20;2.80;;;;;;;;;;4992297;28;20014;-74
2023/01/03 09:02:35;;;;;;;4.13;2.83;;;;;;;;;;5012088;28;20022;-74
2023/01/03 09:05:01;;;;;;;7.30;2.90;;;;;;;;;;5013652;28;20066;-77
2023/01/03 09:07:27;;;;;;;5.60;2.85;;;;;;;;;;5012719;28;20030;-76
2023/01/03 09:09:53;;;;;;;4.13;2.70;;;;;;;;;;5012207;28;20038;-74
2023/01/03 09:12:19;;;;;;;6.15;2.83;;;;;;;;;;5008978;28;20094;-75
2023/01/03 09:14:45;;;;;;;7.80;2.50;;;;;;;;;;5001117;28;20030;-73
2023/01/03 09:17:11;;;;;;;2.97;2.47;;;;;;;;;;5012179;28;20453;-73
2023/01/03 09:19:37;;;;;;;3.70;2.50;;;;;;;;;;5013032;28;20032;-75
2023/01/03 09:22:03;;;;;;;5.40;2.60;;;;;;;;;;5011963;28;20018;-74
2023/01/03 09:24:29;;;;;;;4.47;2.60;;;;;;;;;;5012075;28;20022;-75
2023/01/03 09:26:55;;;;;;;5.50;2.80;;;;;;;;;;5011713;28;20041;-76
2023/01/03 09:29:21;;;;;;;2.72;2.17;;;;;;;;;;5011396;28;20022;-75
2023/01/03 09:31:47;;;;;;;2.50;2.30;;;;;;;;;;5011835;28;20033;-74
2023/01/03 09:34:13;;;;;;;5.28;2.35;;;;;;;;;;5011321;28;20052;-74
2023/01/03 09:36:39;;;;;;;4.00;2.60;;;;;;;;;;5007911;28;20572;-75
2023/01/03 09:39:06;;;;;;;5.13;2.90;;;;;;;;;;4991702;28;20087;-74
2023/01/03 09:41:33;;;;;;;5.00;2.10;;;;;;;;;;4992081;28;20018;-77
2023/01/03 09:44:00;;;;;;;4.80;2.53;;;;;;;;;;5011538;28;20025;-75
2023/01/03 09:46:27;;;;;;;7.07;2.63;;;;;;;;;;5011706;28;20045;-74
2023/01/03 09:48:54;;;;;;;4.30;2.35;;;;;;;;;;5011005;28;20022;-74
2023/01/03 10:05:34;;;;;;;4.05;2.33;;;;;;;;;;5013061;28;20032;-74
2023/01/03 10:08:00;;;;;;;4.70;2.40;;;;;;;;;;5020060;28;20074;-74
2023/01/03 10:10:40;;;;;;;6.15;2.25;;;;;;;;;;5022194;28;20081;-75
2023/01/03 10:13:18;;;;;;;4.57;1.97;;;;;;;;;;5020809;28;20022;-74
2023/01/03 10:16:03;;;;;;;3.05;2.13;;;;;;;;;;5016172;28;20347;-73
2023/01/03 10:19:07;;;;;;;6.30;2.10;;;;;;;;;;5013400;28;20480;-74
2023/01/03 10:21:49;;;;;;;6.90;2.28;;;;;;;;;;4916810;29;20024;-74
2023/01/03 10:24:18;;;;;;;3.72;2.03;;;;;;;;;;4917046;29;20064;-74
2023/01/03 10:26:44;;;;;;;8.68;2.20;;;;;;;;;;4976687;28;20041;-75
2023/01/03 10:29:12;;;;;;;7.53;2.42;;;;;;;;;;5019815;28;20014;-74
2023/01/03 10:31:58;;;;;;;3.92;1.83;;;;;;;;;;5022554;28;20022;-74
2023/01/03 10:34:24;;;;;;;2.67;1.75;;;;;;;;;;5021979;28;20566;-74
2023/01/03 10:36:50;;;;;;;5.43;2.10;;;;;;;;;;5021139;28;20026;-75
2023/01/03 10:39:26;;;;;;;8.68;3.05;;;;;;;;;;5024792;28;20045;-77
2023/01/03 10:41:56;;;;;;;8.40;2.25;;;;;;;;;;5023642;28;20025;-73
2023/01/03 10:44:26;;;;;;;4.47;1.90;;;;;;;;;;5006430;28;20421;-75
2023/01/03 10:46:53;;;;;;;3.58;2.47;;;;;;;;;;5005931;28;20091;-75
2023/01/03 10:49:24;;;;;;;4.43;2.03;;;;;;;;;;5018420;28;20459;-75
2023/01/03 10:52:09;;;;;;;3.67;1.95;;;;;;;;;;5018533;28;20037;-76
2023/01/03 10:54:58;;;;;;;7.75;2.60;;;;;;;;;;5019220;28;20512;-73
2023/01/03 10:57:43;;;;;;;4.15;2.30;;;;;;;;;;5017088;28;20026;-75
2023/01/03 11:00:29;;;;;;;6.60;2.40;;;;;;;;;;5016166;28;20052;-72
2023/01/03 11:03:00;;;;;;;2.70;1.55;;;;;;;;;;5014147;28;20030;-73
2023/01/03 11:05:27;;;;;;;5.20;2.25;;;;;;;;;;5014823;28;20506;-74
2023/01/03 11:07:54;;;;;;;4.00;1.80;;;;;;;;;;5013738;28;20507;-73
2023/01/03 11:10:20;;;;;;;1.90;1.50;;;;;;;;;;5014645;28;20141;-73
2023/01/03 11:12:47;;;;;;;6.90;2.20;;;;;;;;;;5014491;28;20026;-73
2023/01/03 11:15:15;;;;;;;9.23;2.13;;;;;;;;;;5014051;28;20029;-72
2023/01/03 11:18:02;;;;;;;2.97;1.70;;;;;;;;;;5013382;28;20439;-73
2023/01/03 11:20:48;;;;;;;3.80;1.55;;;;;;;;;;5013593;28;20025;-71
2023/01/03 11:23:16;;;;;;;4.57;1.83;;;;;;;;;;5013928;28;20468;-72
2023/01/03 11:25:58;;;;;;;3.92;1.83;;;;;;;;;;5013742;28;20400;-73
2023/01/03 11:28:36;;;;;;;4.45;1.65;;;;;;;;;;5012972;28;20033;-75
2023/01/03 11:31:08;;;;;;;4.93;1.63;;;;;;;;;;5011887;28;20065;-72
2023/01/03 11:33:37;;;;;;;3.00;1.73;;;;;;;;;;5012240;28;20149;-73
2023/01/03 11:36:07;;;;;;;5.75;1.70;;;;;;;;;;5013126;28;20061;-71
2023/01/03 11:38:51;;;;;;;4.55;1.75;;;;;;;;;;5012974;28;20037;-76
2023/01/03 11:41:27;;;;;;;3.78;1.73;;;;;;;;;;5013544;28;20060;-73
2023/01/03 11:44:05;;;;;;;4.53;2.03;;;;;;;;;;5013528;28;20026;-74
2023/01/03 11:46:41;;;;;;;4.28;1.85;;;;;;;;;;5013258;28;20026;-74
2023/01/03 11:49:18;;;;;;;3.75;1.85;;;;;;;;;;5012967;28;20029;-74
2023/01/03 11:51:53;;;;;;;3.60;1.50;;;;;;;;;;5013654;28;20033;-73
2023/01/03 11:54:21;;;;;;;2.40;1.20;;;;;;;;;;5014047;28;20037;-74
2023/01/03 11:56:49;;;;;;;3.88;1.83;;;;;;;;;;4995386;28;20026;-73
2023/01/03 11:59:15;;;;;;;4.90;1.60;;;;;;;;;;5012698;28;20030;-75
2023/01/03 12:01:45;;;;;;;3.05;1.42;;;;;;;;;;4996054;28;20029;-72
2023/01/03 12:04:14;;;;;;;5.00;0.90;;;;;;;;;;5013343;28;20030;-73
2023/01/03 12:06:59;;;;;;;5.65;1.05;;;;;;;;;;5013153;28;20045;-73
2023/01/03 12:09:31;;;;;;;2.67;0.90;;;;;;;;;;5013079;28;20299;-74
2023/01/03 12:12:06;;;;;;;1.50;0.70;;;;;;;;;;4995512;28;20072;-73
2023/01/03 12:14:35;;;;;;;3.47;0.85;;;;;;;;;;5012975;28;20063;-73
2023/01/03 12:17:05;;;;;;;3.53;0.65;;;;;;;;;;5012318;28;20033;-73
2023/01/03 12:19:41;;;;;;;5.82;1.15;;;;;;;;;;5012748;28;20030;-71
2023/01/03 12:22:15;;;;;;;1.67;1.20;;;;;;;;;;4994994;28;20018;-74
2023/01/03 12:24:49;;;;;;;2.08;1.10;;;;;;;;;;5012538;28;20049;-73
2023/01/03 12:27:20;;;;;;;2.35;0.95;;;;;;;;;;5011665;28;20400;-74
2023/01/03 12:29:46;;;;;;;;;;;;;;;;;;5012016;28;20028;-77
2023/01/03 12:32:23;;;;;;;5.82;1.10;;;;;;;;;;5010493;28;19909;-75
2023/01/03 12:34:57;;;;;;;4.05;0.80;;;;;;;;;;5012526;28;20038;-74
2023/01/03 12:37:26;;;;;;;5.93;1.25;;;;;;;;;;4994239;28;20030;-74
2023/01/03 12:39:55;;;;;;;2.13;0.98;;;;;;;;;;4994807;28;20026;-73
2023/01/03 12:42:39;;;;;;;5.82;1.00;;;;;;;;;;5012202;28;20179;-74
2023/01/03 12:45:09;;;;;;;2.38;1.15;;;;;;;;;;5012512;28;20080;-74
2023/01/03 12:47:39;;;;;;;2.13;0.65;;;;;;;;;;5011601;28;20093;-74
2023/01/03 12:50:20;;;;;;;3.25;0.85;;;;;;;;;;5012493;28;20045;-71
2023/01/03 12:52:51;;;;;;;1.48;0.90;;;;;;;;;;5012674;28;20053;-73
2023/01/03 12:55:23;;;;;;;4.07;0.75;;;;;;;;;;5012175;28;20026;-71
2023/01/03 12:58:07;;;;;;;0.77;0.30;;;;;;;;;;5011844;28;20134;-75
2023/01/03 13:00:47;;;;;;;6.25;1.33;;;;;;;;;;5012380;28;20490;-74
2023/01/03 13:03:17;;;;;;;0.88;0.75;;;;;;;;;;5012278;28;20045;-75
2023/01/03 13:05:50;;;;;;;1.42;0.60;;;;;;;;;;5012064;28;20030;-75
2023/01/03 13:08:19;;;;;;;0.98;0.70;;;;;;;;;;5011198;28;20399;-74
2023/01/03 13:10:47;;;;;;;1.27;0.60;;;;;;;;;;5011245;28;20584;-71
2023/01/03 13:13:15;;;;;;;2.63;0.88;;;;;;;;;;5009697;28;20070;-74
2023/01/03 13:15:41;;;;;;;1.98;0.75;;;;;;;;;;5009883;28;20034;-75
2023/01/03 13:18:22;;;;;;;1.88;0.60;;;;;;;;;;5010069;28;20101;-73
2023/01/03 13:20:52;;;;;;;2.78;0.85;;;;;;;;;;5010656;28;20022;-74
2023/01/03 13:23:38;;;;;;;3.95;0.90;;;;;;;;;;5010305;28;20105;-71
2023/01/03 13:26:04;;;;;;;3.22;1.00;;;;;;;;;;4993239;28;20026;-73
2023/01/03 13:28:34;;;;;;;4.28;1.42;;;;;;;;;;5011074;28;20112;-74
2023/01/03 13:31:13;;;;;;;5.13;1.20;;;;;;;;;;5011745;28;20046;-73
2023/01/03 13:34:02;;;;;;;2.55;0.75;;;;;;;;;;5008747;28;20114;-74
2023/01/03 13:36:48;;;;;;;2.92;1.30;;;;;;;;;;5010573;28;20042;-76
2023/01/03 13:39:32;;;;;;;2.58;1.13;;;;;;;;;;5010871;28;20173;-74
2023/01/03 13:41:58;;;;;;;2.92;1.10;;;;;;;;;;5011752;28;20030;-75
2023/01/03 13:44:24;;;;;;;4.10;1.58;;;;;;;;;;5009929;28;20022;-74
2023/01/03 13:46:50;;;;;;;3.95;0.95;;;;;;;;;;5011749;28;20033;-75
2023/01/03 13:49:27;;;;;;;5.07;1.40;;;;;;;;;;5011241;28;20022;-74
2023/01/03 13:51:54;;;;;;;3.15;1.20;;;;;;;;;;4994024;28;20532;-74
2023/01/03 13:54:20;;;;;;;2.22;1.42;;;;;;;;;;5012925;28;20109;-74
2023/01/03 13:56:51;;;;;;;8.95;2.45;;;;;;;;;;5015255;28;20742;-75
2023/01/03 13:59:22;;;;;;;4.40;1.67;;;;;;;;;;5014694;28;20026;-75
2023/01/03 14:02:08;;;;;;;1.60;1.08;;;;;;;;;;5015690;28;20288;-72
2023/01/03 14:04:41;;;;;;;3.63;1.50;;;;;;;;;;5015691;28;20025;-75
2023/01/03 14:07:16;;;;;;;4.97;1.80;;;;;;;;;;4996887;28;20511;-73
2023/01/03 14:09:58;;;;;;;5.70;1.42;;;;;;;;;;5015312;28;20026;-72
2023/01/03 14:12:37;;;;;;;3.08;1.10;;;;;;;;;;5015533;28;20022;-76
2023/01/03 14:15:12;;;;;;;4.60;1.35;;;;;;;;;;5015417;28;20025;-75
2023/01/03 14:17:38;;;;;;;7.10;1.35;;;;;;;;;;5015163;28;20029;-74
2023/01/03 14:20:10;;;;;;;3.53;1.42;;;;;;;;;;5016062;28;20050;-73
2023/01/03 14:22:39;;;;;;;5.45;1.10;;;;;;;;;;5015607;28;20025;-72
2023/01/03 14:25:06;;;;;;;1.92;1.10;;;;;;;;;;5015468;28;20033;-73
2023/01/03 14:27:36;;;;;;;4.18;1.23;;;;;;;;;;5047747;22;20094;-76
2023/01/03 14:30:02;;;;;;;4.00;1.23;;;;;;;;;;5016598;28;20025;-75
2023/01/03 14:32:29;;;;;;;3.53;1.55;;;;;;;;;;5035137;28;20023;-76
2023/01/03 14:34:55;;;;;;;0.70;0.70;;;;;;;;;;5034362;28;20121;-75
2023/01/03 14:37:25;;;;;;;2.88;1.10;;;;;;;;;;5033505;28;20068;-76
2023/01/03 14:39:55;;;;;;;5.15;1.10;;;;;;;;;;5034400;28;20029;-76
2023/01/03 14:42:22;;;;;;;3.10;1.40;;;;;;;;;;5034454;28;20025;-76
2023/01/03 14:44:58;;;;;;;1.38;0.93;;;;;;;;;;5016292;28;20083;-77
2023/01/03 14:47:42;;;;;;;3.45;1.38;;;;;;;;;;5033520;28;20387;-77
2023/01/03 14:50:15;;;;;;;5.68;1.20;;;;;;;;;;5034305;28;20071;-77
2023/01/03 14:52:44;;;;;;;3.10;1.63;;;;;;;;;;5034274;28;20056;-77
2023/01/03 14:55:14;;;;;;;3.35;1.50;;;;;;;;;;5016828;28;20049;-76
2023/01/03 14:57:41;;;;;;;7.20;1.35;;;;;;;;;;5016351;28;20491;-75
2023/01/03 15:00:11;;;;;;;3.47;1.20;;;;;;;;;;5036067;28;20021;-76
2023/01/03 15:02:38;;;;;;;2.33;1.38;;;;;;;;;;5036087;28;20021;-75
2023/01/03 15:05:16;;;;;;;4.28;1.60;;;;;;;;;;5035968;28;20030;-76
2023/01/03 15:07:42;;;;;;;20.30;1.60;;;;;;;;;;5019257;28;20025;-76
2023/01/03 15:10:11;;;;;;;3.97;1.70;;;;;;;;;;5017822;28;20526;-76
2023/01/03 15:12:44;;;;;;;3.20;1.52;;;;;;;;;;5033984;28;20029;-75
2023/01/03 15:15:20;;;;;;;5.53;1.42;;;;;;;;;;5033829;28;20101;-76
2023/01/03 15:17:47;;;;;;;3.90;1.48;;;;;;;;;;5033083;28;20472;-77
2023/01/03 15:20:16;;;;;;;4.10;1.92;;;;;;;;;;5033937;28;20029;-76
2023/01/03 15:22:42;;;;;;;4.97;1.63;;;;;;;;;;5034552;28;20160;-76
2023/01/03 15:25:32;;;;;;;6.00;2.20;;;;;;;;;;5034061;28;20510;-75
2023/01/03 15:28:11;;;;;;;3.22;1.50;;;;;;;;;;5020878;28;20094;-76
2023/01/03 15:30:44;;;;;;;2.58;1.65;;;;;;;;;;5016715;28;20124;-75
2023/01/03 15:33:23;;;;;;;6.65;1.52;;;;;;;;;;5016718;28;20368;-76
2023/01/03 15:35:50;;;;;;;5.97;2.33;;;;;;;;;;5034928;28;20064;-75
2023/01/03 15:38:28;;;;;;;1.42;1.13;;;;;;;;;;5041489;28;20017;-75
2023/01/03 15:40:54;;;;;;;3.05;1.17;;;;;;;;;;5041921;28;20025;-76
2023/01/03 15:43:24;;;;;;;5.18;1.25;;;;;;;;;;5037229;28;20108;-74
2023/01/03 15:45:56;;;;;;;2.92;1.20;;;;;;;;;;5037122;28;20037;-76
2023/01/03 15:48:22;;;;;;;2.95;1.75;;;;;;;;;;5021391;28;20025;-75
2023/01/03 15:50:50;;;;;;;3.08;1.30;;;;;;;;;;5050168;28;20041;-75
2023/01/03 15:53:35;;;;;;;4.47;1.50;;;;;;;;;;5050760;28;20053;-74
2023/01/03 15:56:13;;;;;;;9.07;2.35;;;;;;;;;;5028804;28;20033;-75
2023/01/03 15:58:39;;;;;;;7.38;2.28;;;;;;;;;;5023513;28;20029;-75
2023/01/03 16:01:06;;;;;;;6.53;2.83;;;;;;;;;;5046474;28;20017;-74
2023/01/03 16:03:32;;;;;;;5.57;3.92;;;;;;;;;;5046181;28;20056;-75
2023/01/03 16:05:58;;;;;;;12.48;5.75;;;;;;;;;;5027231;28;20021;-75
2023/01/03 16:08:32;;;;;;;11.82;6.30;;;;;;;;;;5039093;28;20044;-75